createdAt,value
2019-04-29T00:01:36.898Z,9.60
2019-04-29T00:04:06.650Z,9.47
2019-04-29T00:06:36.304Z,8.63
2019-04-29T00:09:10.448Z,7.92
2019-04-29T00:11:40.614Z,7.67
2019-04-29T00:14:10.620Z,7.53
2019-04-29T00:16:45.999Z,7.43
2019-04-29T00:19:30.364Z,7.92
2019-04-29T00:22:00.682Z,8.97
2019-04-29T00:24:31.408Z,9.20
2019-04-29T00:27:01.148Z,9.43
2019-04-29T00:29:30.891Z,8.40
2019-04-29T00:32:00.799Z,8.37
2019-04-29T00:34:30.459Z,8.20
2019-04-29T00:37:31.638Z,8.90
2019-04-29T00:40:34.719Z,9.80
2019-04-29T00:43:28.000Z,8.65
2019-04-29T00:45:58.013Z,9.73
2019-04-29T00:48:28.011Z,10.27
2019-04-29T00:50:57.682Z,10.90
2019-04-29T00:53:27.860Z,11.27
2019-04-29T00:55:59.506Z,11.20
2019-04-29T00:58:29.449Z,10.33
2019-04-29T01:00:59.287Z,11.10
2019-04-29T01:03:29.052Z,11.13
2019-04-29T01:05:58.794Z,11.97
2019-04-29T01:08:28.615Z,11.50
2019-04-29T01:10:58.550Z,11.87
2019-04-29T01:13:28.295Z,10.83
2019-04-29T01:15:58.198Z,9.93
2019-04-29T01:18:27.936Z,9.80
2019-04-29T01:20:57.990Z,10.40
2019-04-29T01:23:27.662Z,10.27
2019-04-29T01:26:00.684Z,9.33
2019-04-29T01:28:49.593Z,9.20
2019-04-29T01:31:24.335Z,9.20
2019-04-29T01:33:57.990Z,9.78
2019-04-29T01:36:33.012Z,9.90
2019-04-29T01:39:04.564Z,9.00
2019-04-29T01:41:42.438Z,7.50
2019-04-29T01:44:12.122Z,8.27
2019-04-29T01:46:41.819Z,7.63
2019-04-29T01:49:11.500Z,8.30
2019-04-29T01:51:41.480Z,8.00
2019-04-29T01:54:11.137Z,7.83
2019-04-29T01:56:41.399Z,8.48
2019-04-29T01:59:12.099Z,8.48
2019-04-29T02:01:41.922Z,8.20
2019-04-29T02:04:11.646Z,8.77
2019-04-29T02:06:41.315Z,8.73
2019-04-29T02:09:15.636Z,8.73
2019-04-29T02:11:45.375Z,8.53
2019-04-29T02:14:15.046Z,8.90
2019-04-29T02:16:44.708Z,8.70
2019-04-29T02:19:14.381Z,9.63
2019-04-29T02:22:03.085Z,9.63
2019-04-29T02:24:33.136Z,9.97
2019-04-29T02:27:05.609Z,9.10
2019-04-29T02:29:34.214Z,10.67
2019-04-29T02:32:04.869Z,10.17
2019-04-29T02:34:34.545Z,10.70
2019-04-29T02:37:06.856Z,9.87
2019-04-29T02:39:48.171Z,11.33
2019-04-29T02:42:43.130Z,11.00
2019-04-29T02:45:21.023Z,12.73
2019-04-29T02:47:53.538Z,13.07
2019-04-29T02:50:23.526Z,12.40
2019-04-29T02:52:53.303Z,12.50
2019-04-29T02:55:28.761Z,11.90
2019-04-29T02:58:06.275Z,11.40
2019-04-29T03:01:01.190Z,11.20
2019-04-29T03:03:39.086Z,10.67
2019-04-29T03:06:08.904Z,10.32
2019-04-29T03:08:38.825Z,10.53
2019-04-29T03:11:08.571Z,10.47
2019-04-29T03:13:38.816Z,10.33
2019-04-29T03:16:08.820Z,11.03
2019-04-29T03:18:42.490Z,9.57
2019-04-29T03:21:18.433Z,7.50
2019-04-29T03:23:48.109Z,6.83
2019-04-29T03:26:17.830Z,6.50
2019-04-29T03:28:47.493Z,6.47
2019-04-29T03:31:17.180Z,8.13
2019-04-29T03:33:46.993Z,7.50
2019-04-29T03:36:16.799Z,7.22
2019-04-29T03:38:46.454Z,7.33
2019-04-29T03:41:16.099Z,7.50
2019-04-29T03:43:45.770Z,7.83
2019-04-29T03:46:15.436Z,8.90
2019-04-29T03:48:45.108Z,8.80
2019-04-29T03:51:14.785Z,10.20
2019-04-29T03:53:44.447Z,12.00
2019-04-29T03:56:14.351Z,10.68
2019-04-29T03:58:44.041Z,10.40
2019-04-29T04:01:22.403Z,11.17
2019-04-29T04:03:56.791Z,10.80
2019-04-29T04:06:36.038Z,13.33
2019-04-29T04:09:15.450Z,11.47
2019-04-29T04:11:45.122Z,9.90
2019-04-29T04:14:15.042Z,10.07
2019-04-29T04:17:20.263Z,10.43
2019-04-29T04:19:48.300Z,9.93
2019-04-29T04:22:18.057Z,9.88
2019-04-29T04:24:47.804Z,9.70
2019-04-29T04:27:17.480Z,10.25
2019-04-29T04:29:48.145Z,11.87
2019-04-29T04:32:17.843Z,14.43
2019-04-29T04:34:47.505Z,13.13
2019-04-29T04:37:17.192Z,11.60
2019-04-29T04:39:46.862Z,12.37
2019-04-29T04:42:16.888Z,11.27
2019-04-29T04:44:49.886Z,12.53
2019-04-29T04:47:20.075Z,10.68
2019-04-29T04:49:49.518Z,10.97
2019-04-29T04:52:18.471Z,10.68
2019-04-29T04:54:48.270Z,11.50
2019-04-29T04:57:17.153Z,11.57
2019-04-29T04:59:47.136Z,12.97
2019-04-29T05:02:16.819Z,14.37
2019-04-29T05:04:46.585Z,12.83
2019-04-29T05:07:17.237Z,12.60
2019-04-29T05:09:47.954Z,14.25
2019-04-29T05:12:17.868Z,13.67
2019-04-29T05:14:47.529Z,15.97
2019-04-29T05:17:17.208Z,14.00
2019-04-29T05:19:46.893Z,14.37
2019-04-29T05:22:16.586Z,15.20
2019-04-29T05:24:46.273Z,15.50
2019-04-29T05:27:16.208Z,16.70
2019-04-29T05:29:46.113Z,12.77
2019-04-29T05:32:15.798Z,14.10
2019-04-29T05:34:48.008Z,14.37
2019-04-29T05:37:56.523Z,14.50
2019-04-29T05:40:40.792Z,13.70
2019-04-29T05:43:11.060Z,14.30
2019-04-29T05:45:47.882Z,14.07
2019-04-29T05:48:16.439Z,16.37
2019-04-29T05:50:57.835Z,14.67
2019-04-29T05:53:33.460Z,15.77
2019-04-29T05:56:03.137Z,17.77
2019-04-29T05:58:37.620Z,17.60
2019-04-29T06:01:11.008Z,21.82
2019-04-29T06:03:44.045Z,19.47
2019-04-29T06:06:12.544Z,17.90
2019-04-29T06:08:42.155Z,19.10
2019-04-29T06:11:12.089Z,20.92
2019-04-29T06:13:41.763Z,26.80
2019-04-29T06:16:15.968Z,23.40
2019-04-29T06:18:43.153Z,27.47
2019-04-29T06:21:12.909Z,25.30
2019-04-29T06:23:42.581Z,28.10
2019-04-29T06:26:12.757Z,23.70
2019-04-29T06:28:43.425Z,22.53
2019-04-29T06:31:15.426Z,24.30
2019-04-29T06:33:45.138Z,25.97
2019-04-29T06:36:14.946Z,24.10
2019-04-29T06:38:44.908Z,26.40
2019-04-29T06:41:14.603Z,25.83
2019-04-29T06:43:44.305Z,23.90
2019-04-29T06:46:14.354Z,22.03
2019-04-29T06:48:44.126Z,19.40
2019-04-29T06:51:14.162Z,19.62
2019-04-29T06:53:43.858Z,18.43
2019-04-29T06:56:13.535Z,18.32
2019-04-29T06:58:43.378Z,17.23
2019-04-29T07:01:13.072Z,18.17
2019-04-29T07:03:42.967Z,16.33
2019-04-29T07:06:13.628Z,16.95
2019-04-29T07:08:43.347Z,17.63
2019-04-29T07:11:13.110Z,16.93
2019-04-29T07:13:42.843Z,17.77
2019-04-29T07:16:12.987Z,15.83
2019-04-29T07:18:48.338Z,14.43
2019-04-29T07:21:14.477Z,13.93
2019-04-29T07:23:44.147Z,15.57
2019-04-29T07:26:13.852Z,12.98
2019-04-29T07:28:43.548Z,13.47
2019-04-29T07:31:13.237Z,12.83
2019-04-29T07:33:42.969Z,12.43
2019-04-29T07:36:12.669Z,13.32
2019-04-29T07:38:46.487Z,12.60
2019-04-29T07:41:18.460Z,12.53
2019-04-29T07:43:45.406Z,13.57
2019-04-29T07:46:36.463Z,13.00
2019-04-29T07:49:05.885Z,13.27
2019-04-29T07:51:39.438Z,12.30
2019-04-29T07:54:11.065Z,12.40
2019-04-29T07:56:42.350Z,12.47
2019-04-29T07:59:11.343Z,10.97
2019-04-29T08:01:41.253Z,11.73
2019-04-29T08:04:09.712Z,12.33
2019-04-29T08:06:42.654Z,11.23
2019-04-29T08:09:09.732Z,11.57
2019-04-29T08:11:38.210Z,11.53
2019-04-29T08:14:06.600Z,10.77
2019-04-29T08:16:34.902Z,11.13
2019-04-29T08:19:05.044Z,10.97
2019-04-29T08:21:33.494Z,10.70
2019-04-29T08:24:01.795Z,10.50
2019-04-29T08:26:33.588Z,8.97
2019-04-29T08:29:00.826Z,8.10
2019-04-29T08:31:29.890Z,8.57
2019-04-29T08:33:58.213Z,8.60
2019-04-29T08:36:26.926Z,9.10
2019-04-29T08:39:08.015Z,9.70
2019-04-29T08:41:28.797Z,8.43
2019-04-29T08:44:16.198Z,9.43
2019-04-29T08:46:51.818Z,8.63
2019-04-29T08:49:17.218Z,8.70
2019-04-29T08:51:45.658Z,9.43
2019-04-29T08:54:16.018Z,8.88
2019-04-29T08:57:01.656Z,9.90
2019-04-29T08:59:20.672Z,9.35
2019-04-29T09:01:48.858Z,10.00
2019-04-29T09:04:18.551Z,10.00
2019-04-29T09:06:48.229Z,9.37
2019-04-29T09:09:28.452Z,9.55
2019-04-29T09:11:49.618Z,9.97
2019-04-29T09:14:19.465Z,11.07
2019-04-29T09:16:49.161Z,9.77
2019-04-29T09:19:18.868Z,10.45
2019-04-29T09:21:51.512Z,10.07
2019-04-29T09:24:22.571Z,11.28
2019-04-29T09:26:58.233Z,9.53
2019-04-29T09:29:32.257Z,7.90
2019-04-29T09:32:02.213Z,7.60
2019-04-29T09:34:31.980Z,7.50
2019-04-29T09:37:01.997Z,6.50
2019-04-29T09:39:43.157Z,6.10
2019-04-29T09:42:30.743Z,5.60
2019-04-29T09:45:05.465Z,5.30
2019-04-29T09:47:35.426Z,5.27
2019-04-29T09:50:06.739Z,4.70
2019-04-29T09:52:36.857Z,5.57
2019-04-29T09:55:07.216Z,5.20
2019-04-29T09:57:36.906Z,4.93
2019-04-29T10:00:14.055Z,4.57
2019-04-29T10:02:52.065Z,4.77
2019-04-29T10:05:40.300Z,4.97
2019-04-29T10:08:09.567Z,4.67
2019-04-29T10:10:38.019Z,5.20
2019-04-29T10:13:06.324Z,5.57
2019-04-29T10:15:55.934Z,5.53
2019-04-29T10:18:50.740Z,5.03
2019-04-29T10:21:21.405Z,4.50
2019-04-29T10:23:49.221Z,4.60
2019-04-29T10:26:17.806Z,4.72
2019-04-29T10:28:59.733Z,4.87
2019-04-29T10:31:28.183Z,4.63
2019-04-29T10:33:56.641Z,5.00
2019-04-29T10:36:26.338Z,4.87
2019-04-29T10:38:56.551Z,4.20
2019-04-29T10:41:30.495Z,4.50
2019-04-29T10:44:25.878Z,4.70
2019-04-29T10:47:07.386Z,4.20
2019-04-29T10:49:55.327Z,4.37
2019-04-29T10:52:23.730Z,4.90
2019-04-29T10:54:55.352Z,4.40
2019-04-29T10:57:25.555Z,3.70
2019-04-29T11:00:01.376Z,3.90
2019-04-29T11:02:40.196Z,3.60
2019-04-29T11:05:34.889Z,3.30
2019-04-29T11:08:15.321Z,4.12
2019-04-29T11:10:45.359Z,3.57
2019-04-29T11:13:15.372Z,4.90
2019-04-29T11:15:49.436Z,4.57
2019-04-29T11:18:22.575Z,4.37
2019-04-29T11:20:48.912Z,4.47
2019-04-29T11:23:27.278Z,4.30
2019-04-29T11:26:15.281Z,4.47
2019-04-29T11:28:46.940Z,4.20
2019-04-29T11:31:19.314Z,4.78
2019-04-29T11:33:59.661Z,4.60
2019-04-29T11:36:29.429Z,4.03
2019-04-29T11:38:59.114Z,4.10
2019-04-29T11:41:31.645Z,4.30
2019-04-29T11:44:01.344Z,4.50
2019-04-29T11:46:31.169Z,4.20
2019-04-29T11:49:02.577Z,3.97
2019-04-29T11:52:07.942Z,4.13
2019-04-29T11:54:18.073Z,4.37
2019-04-29T11:56:46.699Z,4.20
2019-04-29T11:59:34.294Z,3.43
2019-04-29T12:02:37.690Z,4.47
2019-04-29T12:05:04.118Z,3.77
2019-04-29T12:07:34.111Z,4.03
2019-04-29T12:10:06.472Z,4.40
2019-04-29T12:12:35.932Z,4.30
2019-04-29T12:15:34.722Z,5.30
2019-04-29T12:18:12.236Z,4.08
2019-04-29T12:21:13.279Z,3.80
2019-04-29T12:23:43.343Z,3.97
2019-04-29T12:26:13.377Z,3.80
2019-04-29T12:28:44.499Z,4.50
2019-04-29T12:31:29.998Z,3.97
2019-04-29T12:34:09.073Z,4.60
2019-04-29T12:36:55.023Z,4.10
2019-04-29T12:39:42.865Z,3.58
2019-04-29T12:42:28.471Z,3.80
2019-04-29T12:45:01.353Z,4.13
2019-04-29T12:47:33.104Z,3.80
2019-04-29T12:50:02.802Z,4.50
2019-04-29T12:52:32.518Z,5.07
2019-04-29T12:55:19.813Z,4.83
2019-04-29T12:57:35.988Z,4.50
2019-04-29T13:00:09.166Z,4.40
2019-04-29T13:03:01.437Z,4.53
2019-04-29T13:05:57.910Z,5.00
2019-04-29T13:08:28.518Z,4.70
2019-04-29T13:11:00.805Z,5.47
2019-04-29T13:13:30.629Z,5.67
2019-04-29T13:16:20.831Z,6.40
2019-04-29T13:19:10.646Z,5.67
2019-04-29T13:21:30.787Z,5.65
2019-04-29T13:24:13.577Z,5.40
2019-04-29T13:26:33.357Z,6.20
2019-04-29T13:29:03.576Z,5.67
2019-04-29T13:31:38.374Z,5.77
2019-04-29T13:34:22.963Z,6.43
2019-04-29T13:36:39.045Z,6.87
2019-04-29T13:39:09.696Z,5.90
2019-04-29T13:41:56.167Z,6.25
2019-04-29T13:44:11.597Z,5.93
2019-04-29T13:47:03.247Z,6.10
2019-04-29T13:49:50.596Z,6.17
2019-04-29T13:52:20.749Z,6.67
2019-04-29T17:10:10.605Z,14.27
2019-04-29T17:12:47.963Z,14.53
2019-04-29T17:15:26.083Z,12.93
2019-04-29T17:17:55.582Z,12.47
2019-04-29T17:20:25.273Z,10.67
2019-04-29T17:22:54.955Z,10.23
2019-04-29T17:25:25.108Z,9.70
2019-04-29T17:28:12.317Z,10.07
2019-04-29T17:31:12.452Z,10.00
2019-04-29T17:33:50.191Z,10.33
2019-04-29T17:36:23.803Z,8.90
2019-04-29T17:38:51.679Z,9.73
2019-04-29T17:41:21.380Z,10.57
2019-04-29T17:44:02.334Z,11.03
2019-04-29T17:46:50.693Z,10.30
2019-04-29T17:49:30.759Z,9.87
2019-04-29T17:52:02.793Z,11.77
2019-04-29T17:54:37.026Z,12.20
2019-04-29T17:57:31.467Z,11.33
2019-04-29T18:00:15.873Z,12.80
2019-04-29T18:03:05.284Z,11.47
2019-04-29T18:05:55.025Z,11.80
2019-04-29T18:08:27.339Z,10.95
2019-04-29T18:10:59.844Z,12.47
2019-04-29T18:13:30.546Z,13.03
2019-04-29T18:16:03.968Z,11.70
2019-04-29T18:18:46.568Z,12.00
2019-04-29T18:21:43.389Z,13.30
2019-04-29T18:24:25.349Z,13.63
2019-04-29T18:27:00.294Z,12.53
2019-04-29T18:29:28.600Z,13.90
2019-04-29T18:32:00.487Z,13.27
2019-04-29T18:34:29.273Z,12.60
2019-04-29T18:37:00.366Z,14.20
2019-04-29T18:39:31.650Z,14.00
2019-04-29T18:42:03.208Z,14.10
2019-04-29T18:44:33.024Z,14.85
2019-04-29T18:47:02.703Z,13.67
2019-04-29T18:49:32.386Z,14.57
2019-04-29T18:52:03.828Z,15.13
2019-04-29T18:54:33.489Z,14.00
2019-04-29T18:57:03.183Z,14.63
2019-04-29T18:59:36.688Z,15.25
2019-04-29T19:02:09.355Z,15.50
2019-04-29T19:04:48.496Z,15.43
2019-04-29T19:07:17.522Z,15.28
2019-04-29T19:09:47.292Z,15.27
2019-04-29T19:12:17.054Z,16.55
2019-04-29T19:14:47.868Z,15.33
2019-04-29T19:17:17.632Z,15.53
2019-04-29T19:19:47.313Z,16.53
2019-04-29T19:22:16.990Z,17.30
2019-04-29T19:24:48.196Z,17.10
2019-04-29T19:27:17.983Z,18.70
2019-04-29T19:29:47.733Z,19.50
2019-04-29T19:32:18.775Z,19.03
2019-04-29T19:34:50.199Z,17.57
2019-04-29T19:37:18.842Z,20.57
2019-04-29T19:39:47.143Z,20.43
2019-04-29T19:42:28.316Z,21.10
2019-04-29T19:44:45.930Z,19.73
2019-04-29T19:47:16.687Z,19.63
2019-04-29T19:49:46.544Z,22.13
2019-04-29T19:52:27.956Z,21.40
2019-04-29T19:54:48.690Z,21.47
2019-04-29T19:57:18.452Z,22.25
2019-04-29T19:59:51.995Z,20.60
2019-04-29T20:02:20.118Z,18.57
2019-04-29T20:04:58.936Z,20.20
2019-04-29T20:07:27.567Z,19.10
2019-04-29T20:10:04.046Z,20.33
2019-04-29T20:12:29.593Z,20.10
2019-04-29T20:15:01.980Z,19.80
2019-04-29T20:17:53.142Z,19.27
2019-04-29T20:20:35.042Z,18.40
2019-04-29T20:23:03.112Z,20.37
2019-04-29T20:25:38.066Z,20.33
2019-04-29T20:28:08.636Z,21.93
2019-04-29T20:30:37.042Z,20.43
2019-04-29T20:33:09.596Z,21.97
2019-04-29T20:35:40.454Z,20.67
2019-04-29T20:38:09.687Z,23.07
2019-04-29T20:40:43.062Z,21.77
2019-04-29T20:43:11.449Z,22.02
2019-04-29T20:45:41.219Z,23.57
2019-04-29T20:48:15.327Z,21.17
2019-04-29T20:50:46.106Z,23.10
2019-04-29T20:53:19.202Z,22.40
2019-04-29T20:55:49.159Z,21.57
2019-04-29T20:58:23.398Z,22.82
2019-04-29T21:00:50.372Z,21.73
2019-04-29T21:03:27.693Z,21.55
2019-04-29T21:05:54.914Z,20.47
2019-04-29T21:08:23.322Z,20.60
2019-04-29T21:10:55.445Z,19.87
2019-04-29T21:13:33.581Z,22.60
2019-04-29T21:16:11.588Z,20.70
2019-04-29T21:18:45.480Z,20.93
2019-04-29T21:21:12.837Z,20.53
2019-04-29T21:23:42.636Z,20.43
2019-04-29T21:26:12.394Z,21.37
2019-04-29T21:28:44.637Z,19.30
2019-04-29T21:31:18.525Z,21.23
2019-04-29T21:33:45.628Z,21.07
2019-04-29T21:36:26.484Z,20.53
2019-04-29T21:39:02.337Z,21.87
2019-04-29T21:41:42.326Z,20.60
2019-04-29T21:44:12.112Z,20.60
2019-04-29T21:46:40.358Z,20.83
2019-04-29T21:49:11.687Z,20.62
2019-04-29T21:51:41.773Z,21.23
2019-04-29T21:54:09.717Z,20.83
2019-04-29T21:56:39.740Z,20.03
2019-04-29T21:59:12.271Z,21.50
2019-04-29T22:01:41.561Z,20.80
2019-04-29T22:04:11.270Z,20.97
2019-04-29T22:06:41.039Z,20.43
2019-04-29T22:09:12.432Z,21.80
2019-04-29T22:11:44.590Z,21.30
2019-04-29T22:14:15.547Z,22.13
2019-04-29T22:16:47.571Z,21.27
2019-04-29T22:19:17.586Z,21.20
2019-04-29T22:21:47.550Z,21.87
2019-04-29T22:24:17.389Z,22.27
2019-04-29T22:26:47.159Z,18.83
2019-04-29T22:29:16.859Z,20.63
2019-04-29T22:31:46.691Z,20.70
2019-04-29T22:34:19.028Z,21.93
2019-04-29T22:36:52.661Z,22.37
2019-04-29T22:39:21.714Z,21.33
2019-04-29T22:42:01.587Z,21.80
2019-04-29T22:44:31.606Z,21.90
2019-04-29T22:47:01.301Z,22.57
2019-04-29T22:49:32.062Z,21.87
2019-04-29T22:52:01.760Z,20.43
2019-04-29T22:54:31.444Z,21.90
2019-04-29T22:57:01.239Z,22.27
2019-04-29T22:59:30.911Z,21.90
2019-04-29T23:02:01.016Z,20.70
2019-04-29T23:04:30.707Z,23.50
2019-04-29T23:07:00.471Z,23.53
2019-04-29T23:09:30.674Z,22.30
2019-04-29T23:12:00.362Z,25.20
2019-04-29T23:14:30.133Z,25.63
2019-04-29T23:16:59.830Z,24.80
2019-04-29T23:19:29.578Z,25.07
2019-04-29T23:22:07.512Z,24.50
2019-04-29T23:24:55.838Z,24.23
2019-04-29T23:27:25.933Z,25.13
2019-04-29T23:29:55.877Z,26.23
2019-04-29T23:32:25.565Z,26.00
2019-04-29T23:34:57.235Z,26.85
2019-04-29T23:37:29.458Z,27.43
2019-04-29T23:39:59.174Z,26.23
2019-04-29T23:42:28.852Z,26.43
2019-04-29T23:44:58.551Z,23.90
2019-04-29T23:47:28.318Z,24.43
2019-04-29T23:49:58.011Z,27.10
2019-04-29T23:52:27.695Z,26.87
2019-04-29T23:54:56.301Z,27.33
2019-04-29T23:57:46.133Z,27.13
